Search for airport 
image banner adimage banner adimage banner ad
image banner ad

KRRQ - Rock Rapids Muni

Located in Rock Rapids, United States

ICAO - RRQ, IATA -

Data provided by Airmate  

General information

Coordinates: N43°27'8" W96°10'47"
Elevation is 1363 feet MSL.
Magnetic variation is 05° East
View others Airports in Iowa

Operational data

Special qualification required
Current time UTC:
Current local time:
Weather at : KLYV - Quentin Aanenson Field ( 19 km )
METAR: KLYV 210235Z AUTO 32005KT 10SM SCT100 11/08 A3004 RMK AO2 P0003
View NOTAMs / SUP AIP / TFR affecting this airport [VIEW]
Communications frequencies: [VIEW]

Runways:

RWY identifierQFULength (ft)Width (ft)SurfaceLDA (ft)
16172°309750ASPH
34352°309750ASPH

Airport contact information

Address: Rock Rapids United States

Satellite view of KRRQ